Enter the Airport ICAO Code

Search by Airport or City

Current Weather

SABE | Jorge Newbery Airpark

Buenos Aires, Argentina

Last Update 7 Minutes Ago

Clear Sky

Temperature of 19 ēC

Moderate Winds from East

Temperature

19 ēC

Dew Point Temperature

16 ēC

Relative Humidity

82.84 %

Wind Direction

East (110ē, Without Significant Variations)

Wind Velocity

26 km/h (14 kt)

Gusts

None

Visibility

No Significant Reductions

Sea Level Pressure

1017 hPa (Hectopascals)

Layers of Clouds

None

METAR SABE 202200Z 11014KT CAVOK 19/16 Q1017 NOSIG

Weather Forecast

SABE | Jorge Newbery Airpark

Buenos Aires, Argentina

Forecast valid for the next 20 Hours

From now on it is expected:

Sky with Few Clouds

Moderate Winds from East

In 1 to 3 hours it is expected the begining of:

Clear Sky

In 6 to 8 hours it is expected the begining of:

Moderate Winds from NorthEast

Maximum Temperature

25 ēC in 21 Hours

Minimum Temperature

15 ēC in 11 Hours

TAF SABE 201720Z 2018/2118 09010KT 9999 FEW025 TX25/2119Z TN15/2109Z BECMG 2023/2101 CAVOK BECMG 2104/2106 03010KT